Accueil
METAR-TAF:

METAR-TAF

Aéroports :

Amsterdam, Pays-Bas

Aéroport d'Amsterdam-Schiphol

latitude: 52-18N, longitude: 004-46E, altitude: -4 m

Observation

Le bulletin a été fait il y a 44 minutes, à 12:55 UTC
Vent 6 kt de ouest
Température 21°C
Humidité 64%
Pression 1023 hPa
Visibilité 10 km ou plus
Quelques nuages à une hauteur de 2700 ft

METAR: EHAM 211255Z 26006KT 9999 FEW027 21/14 Q1023 NOSIG

Heure: 15:39 (13:39 UTC)

Prévision

Le bulletin a été fait il y a 2 heures et 37 minutes, à 11:02 UTC
Prévision valable du 21 à 12 UTC au 22 à 18 UTC
Vent 5 kt de ouest/sud-ouest
Visibilité 10 km ou plus
Nuages épars à une hauteur de 2000 ft
Probabilité 30% :
Temporairement
du 22 à 02 UTC au 22 à 06 UTC
Visibilité: 4000 m
Brouillard mince, brume

TAF: EHAM 211102Z 2112/2218 25005KT 9999 SCT020 PROB30 TEMPO 2202/2206 4000 MIFG BR

Observations et prévisions météorologiques de plus de 4000 aéroports (messages METAR et TAF).

Les stations disponibles sont représentées par des disques jaunes et rouges sur la carte.

Passer la souris dessus pour voir le nom de la station.

Cliquer dessus pour voir les observations et prévisions météorologiques.

Pour changer de carte: cliquez sur les boutons verts avec une croix noire pour zoomer, sur le bouton vert avec un tiret pour effectuer un zoom arrière, ou sur les flèches vertes pour les cartes adjacentes.


METAR-TAF: